BTI31G EVRA-EETN
Flight info
| Callsign | BTI31G |
|---|---|
| Flight time | 0h 40m |
| Altitude | 19000 |
| Route | SOKVA DCT KEMET |
| Aircraft | DH8D/M-SDE2E3FGRY/H |
Departure
| Time | 2025-09-06 06:54 |
|---|---|
| Airport | Riga International Airport (EVRA) |
Arrival
| Time | 2025-09-06 07:34 |
|---|---|
| Airport | Lennart Meri Tallinn Airport (EETN) |
| Time | Latitude | Longitude | Altitude | Speed | Heading |
|---|---|---|---|---|---|
| 2025-09-06 06:33 | 56.92299 | 23.97610 | 42 ft | 0 kts | 185° |
| 2025-09-06 06:49 | 56.92288 | 23.97554 | 42 ft | 8 kts | 272° |
| 2025-09-06 06:50 | 56.92044 | 23.97451 | 42 ft | 20 kts | 187° |
| 2025-09-06 06:50 | 56.91902 | 23.97437 | 42 ft | 23 kts | 184° |
| 2025-09-06 06:51 | 56.91712 | 23.97249 | 42 ft | 14 kts | 280° |
| 2025-09-06 06:51 | 56.91754 | 23.97022 | 42 ft | 10 kts | 359° |
| 2025-09-06 06:52 | 56.91832 | 23.97035 | 42 ft | 32 kts | 6° |
| 2025-09-06 06:52 | 56.93177 | 23.97228 | 260 ft | 135 kts | 2° |
| 2025-09-06 06:53 | 56.95072 | 23.97366 | 1412 ft | 159 kts | 1° |
| 2025-09-06 06:53 | 56.97428 | 23.97665 | 2299 ft | 190 kts | 9° |
| 2025-09-06 06:54 | 57.00877 | 23.98753 | 4773 ft | 165 kts | 11° |
| 2025-09-06 06:54 | 57.01972 | 23.99141 | 5515 ft | 160 kts | 11° |
| 2025-09-06 06:55 | 57.04107 | 23.99910 | 6808 ft | 161 kts | 9° |
| 2025-09-06 06:56 | 57.06859 | 24.00878 | 8312 ft | 167 kts | 9° |
| 2025-09-06 06:56 | 57.08001 | 24.01273 | 8902 ft | 169 kts | 9° |
| 2025-09-06 06:56 | 57.10261 | 24.02055 | 10037 ft | 170 kts | 9° |
| 2025-09-06 06:57 | 57.12457 | 24.02783 | 11005 ft | 173 kts | 9° |
| 2025-09-06 06:57 | 57.14715 | 24.03529 | 11965 ft | 174 kts | 10° |
| 2025-09-06 06:58 | 57.15867 | 24.03910 | 12425 ft | 175 kts | 10° |
| 2025-09-06 06:58 | 57.19516 | 24.05152 | 13812 ft | 180 kts | 11° |
| 2025-09-06 06:59 | 57.21904 | 24.05972 | 14658 ft | 183 kts | 11° |
| 2025-09-06 06:59 | 57.24363 | 24.06821 | 15513 ft | 187 kts | 11° |
| 2025-09-06 07:00 | 57.26881 | 24.07693 | 16362 ft | 189 kts | 11° |
| 2025-09-06 07:00 | 57.29400 | 24.08570 | 17198 ft | 192 kts | 11° |
| 2025-09-06 07:01 | 57.33171 | 24.09877 | 18366 ft | 196 kts | 11° |
| 2025-09-06 07:01 | 57.34488 | 24.10338 | 18758 ft | 198 kts | 11° |
| 2025-09-06 07:02 | 57.38689 | 24.11816 | 19161 ft | 238 kts | 11° |
| 2025-09-06 07:03 | 57.41646 | 24.12848 | 19170 ft | 265 kts | 11° |
| 2025-09-06 07:03 | 57.45173 | 24.14087 | 19169 ft | 289 kts | 11° |
| 2025-09-06 07:04 | 57.48912 | 24.15393 | 19167 ft | 308 kts | 11° |
| 2025-09-06 07:04 | 57.52971 | 24.16813 | 19165 ft | 322 kts | 11° |
| 2025-09-06 07:04 | 57.55025 | 24.17534 | 19165 ft | 328 kts | 11° |
| 2025-09-06 07:05 | 57.61428 | 24.19791 | 19165 ft | 340 kts | 11° |
| 2025-09-06 07:05 | 57.63622 | 24.20564 | 19165 ft | 343 kts | 11° |
| 2025-09-06 07:06 | 57.70318 | 24.22932 | 19169 ft | 349 kts | 11° |
| 2025-09-06 07:07 | 57.74737 | 24.24500 | 19170 ft | 352 kts | 11° |
| 2025-09-06 07:07 | 57.79059 | 24.26038 | 19172 ft | 353 kts | 11° |
| 2025-09-06 07:08 | 57.83412 | 24.27589 | 19173 ft | 355 kts | 11° |
| 2025-09-06 07:08 | 57.88017 | 24.29229 | 19174 ft | 356 kts | 11° |
| 2025-09-06 07:09 | 57.92464 | 24.30809 | 19177 ft | 357 kts | 11° |
| 2025-09-06 07:09 | 57.94745 | 24.31596 | 19176 ft | 357 kts | 11° |
| 2025-09-06 07:09 | 57.99216 | 24.33113 | 19178 ft | 358 kts | 11° |
| 2025-09-06 07:10 | 58.05994 | 24.35426 | 19178 ft | 358 kts | 11° |
| 2025-09-06 07:11 | 58.10462 | 24.36969 | 19181 ft | 358 kts | 11° |
| 2025-09-06 07:11 | 58.15084 | 24.38575 | 19182 ft | 358 kts | 11° |
| 2025-09-06 07:12 | 58.19645 | 24.40154 | 19182 ft | 358 kts | 11° |
| 2025-09-06 07:12 | 58.24283 | 24.41765 | 19183 ft | 358 kts | 11° |
| 2025-09-06 07:12 | 58.26495 | 24.42535 | 19183 ft | 358 kts | 11° |
| 2025-09-06 07:13 | 58.30979 | 24.44097 | 19183 ft | 358 kts | 11° |
| 2025-09-06 07:13 | 58.35544 | 24.45693 | 19184 ft | 358 kts | 11° |
| 2025-09-06 07:14 | 58.42208 | 24.48037 | 19185 ft | 358 kts | 10° |
| 2025-09-06 07:15 | 58.46647 | 24.49603 | 19185 ft | 358 kts | 11° |
| 2025-09-06 07:15 | 58.51245 | 24.51225 | 19183 ft | 358 kts | 11° |
| 2025-09-06 07:16 | 58.55346 | 24.52674 | 19184 ft | 358 kts | 11° |
| 2025-09-06 07:16 | 58.59695 | 24.54217 | 19185 ft | 358 kts | 11° |
| 2025-09-06 07:16 | 58.61996 | 24.55035 | 18850 ft | 366 kts | 11° |
| 2025-09-06 07:17 | 58.66583 | 24.56669 | 17996 ft | 368 kts | 11° |
| 2025-09-06 07:17 | 58.71119 | 24.58313 | 17176 ft | 364 kts | 13° |
| 2025-09-06 07:18 | 58.77100 | 24.63555 | 16003 ft | 356 kts | 31° |
| 2025-09-06 07:19 | 58.80867 | 24.67755 | 15222 ft | 352 kts | 31° |
| 2025-09-06 07:19 | 58.84670 | 24.71868 | 14441 ft | 349 kts | 30° |
| 2025-09-06 07:20 | 58.88483 | 24.75900 | 13664 ft | 345 kts | 30° |
| 2025-09-06 07:20 | 58.90379 | 24.77912 | 13277 ft | 344 kts | 30° |
| 2025-09-06 07:20 | 58.94162 | 24.81938 | 12503 ft | 340 kts | 30° |
| 2025-09-06 07:21 | 58.97942 | 24.85980 | 11731 ft | 335 kts | 30° |
| 2025-09-06 07:21 | 59.01589 | 24.89880 | 10985 ft | 327 kts | 30° |
| 2025-09-06 07:22 | 59.06892 | 24.95581 | 9898 ft | 315 kts | 30° |
| 2025-09-06 07:23 | 59.10206 | 24.99160 | 9220 ft | 306 kts | 30° |
| 2025-09-06 07:23 | 59.11866 | 25.00947 | 8880 ft | 302 kts | 30° |
| 2025-09-06 07:23 | 59.15050 | 25.04378 | 8223 ft | 274 kts | 30° |
| 2025-09-06 07:24 | 59.18009 | 25.07582 | 7618 ft | 259 kts | 30° |
| 2025-09-06 07:25 | 59.22335 | 25.12289 | 6737 ft | 261 kts | 31° |
| 2025-09-06 07:25 | 59.25262 | 25.15489 | 6066 ft | 264 kts | 30° |
| 2025-09-06 07:25 | 59.26817 | 25.17193 | 5688 ft | 266 kts | 31° |
| 2025-09-06 07:26 | 59.31247 | 25.22024 | 4712 ft | 267 kts | 30° |
| 2025-09-06 07:27 | 59.34415 | 25.23730 | 4130 ft | 264 kts | 6° |
| 2025-09-06 07:27 | 59.37760 | 25.23960 | 3509 ft | 250 kts | 2° |
| 2025-09-06 07:27 | 59.39344 | 25.23992 | 3215 ft | 244 kts | 1° |
| 2025-09-06 07:28 | 59.42200 | 25.22669 | 2894 ft | 229 kts | 320° |
| 2025-09-06 07:28 | 59.43269 | 25.17599 | 2404 ft | 224 kts | 261° |
| 2025-09-06 07:29 | 59.42396 | 25.12272 | 2237 ft | 209 kts | 248° |
| 2025-09-06 07:29 | 59.41708 | 25.07304 | 2169 ft | 198 kts | 257° |
| 2025-09-06 07:30 | 59.41328 | 25.00265 | 1517 ft | 171 kts | 265° |
| 2025-09-06 07:30 | 59.41272 | 24.98105 | 1303 ft | 166 kts | 266° |
| 2025-09-06 07:31 | 59.41252 | 24.94152 | 837 ft | 139 kts | 269° |
| 2025-09-06 07:31 | 59.41287 | 24.90609 | 551 ft | 138 kts | 270° |
| 2025-09-06 07:32 | 59.41315 | 24.87272 | 254 ft | 133 kts | 270° |
| 2025-09-06 07:32 | 59.41324 | 24.84458 | 140 ft | 85 kts | 270° |
| 2025-09-06 07:33 | 59.41327 | 24.82788 | 140 ft | 47 kts | 269° |
| 2025-09-06 07:33 | 59.41330 | 24.82146 | 140 ft | 23 kts | 269° |
| 2025-09-06 07:34 | 59.41331 | 24.81803 | 140 ft | 32 kts | 271° |
| 2025-09-06 07:34 | 59.41381 | 24.80592 | 140 ft | 18 kts | 316° |
| 2025-09-06 07:35 | 59.41494 | 24.80471 | 140 ft | 10 kts | 349° |
| 2025-09-06 07:36 | 59.41560 | 24.80212 | 140 ft | 4 kts | 357° |